Time;durP1;ratioP1;P1;durP2;ratioP2;P2;SDS_P1;SDS_P2;PMS_P1;PMS_P2;Temp;Humidity;BMP_temperature;BMP_pressure;BME280_temperature;BME280_humidity;BME280_pressure;Samples;Min_cycle;Max_cycle;Signal;HPM_P1;HPM_P2
2022/12/18 00:02:16;;;;;;;32.03;12.50;;;;;;;14.67;79.17;99612.66;6043553;23;20660;-92
2022/12/18 00:04:47;;;;;;;24.87;10.97;;;;;;;14.63;79.46;99629.63;6043503;23;20232;-93
2022/12/18 00:07:12;;;;;;;23.80;11.23;;;;;;;14.64;79.73;99647.16;6044847;23;20161;-93
2022/12/18 00:09:51;;;;;;;25.60;10.93;;;;;;;14.68;79.81;99647.81;6043755;23;20175;-93
2022/12/18 00:12:29;;;;;;;;;;;;;;;;;;;;;
2022/12/18 00:15:05;;;;;;;26.77;10.87;;;;;;;14.74;79.55;99629.81;6068258;23;20227;-93
2022/12/18 00:17:31;;;;;;;28.17;12.00;;;;;;;14.85;79.50;99636.22;6044279;23;20164;-93
2022/12/18 00:20:01;;;;;;;24.37;12.23;;;;;;;14.97;78.72;99641.56;6044434;23;20167;-93
2022/12/18 00:22:29;;;;;;;24.77;10.60;;;;;;;15.00;78.67;99640.53;6043580;23;20155;-93
2022/12/18 00:24:59;;;;;;;25.50;10.93;;;;;;;14.97;78.52;99652.13;6043393;23;20433;-93
2022/12/18 00:27:28;;;;;;;20.93;10.43;;;;;;;14.94;78.89;99652.31;6043409;23;20150;-93
2022/12/18 00:30:01;;;;;;;27.50;10.93;;;;;;;14.92;79.04;99651.56;6045137;23;20170;-93
2022/12/18 00:32:51;;;;;;;;;;;;;;;;;;;;;
2022/12/18 00:35:26;;;;;;;;;;;;;;;;;;;;;
2022/12/18 00:38:14;;;;;;;26.67;11.13;;;;;;;14.95;78.92;99648.75;6071061;23;20628;-94
2022/12/18 00:40:48;;;;;;;22.53;11.30;;;;;;;14.94;79.03;99646.19;6045910;23;20153;-94
2022/12/18 00:43:18;;;;;;;20.77;11.37;;;;;;;14.88;78.95;99647.44;6045563;23;20188;-93
2022/12/18 00:45:46;;;;;;;25.93;11.23;;;;;;;14.87;78.67;99663.34;6045515;23;20239;-93
2022/12/18 00:48:36;;;;;;;19.97;9.47;;;;;;;14.87;78.77;99666.84;6042663;23;20189;-92
2022/12/18 00:51:14;;;;;;;;;;;;;;;;;;;;;
2022/12/18 00:54:05;;;;;;;23.53;10.07;;;;;;;14.99;78.11;99674.00;6071662;23;20223;-93
2022/12/18 00:56:52;;;;;;;21.63;10.57;;;;;;;14.95;77.83;99675.16;6040881;23;20160;-92
2022/12/18 00:59:33;;;;;;;;;;;;;;;;;;;;;
2022/12/18 01:10:14;;;;;;;25.97;11.47;;;;;;;14.84;78.82;99690.78;5894958;24;20258;-95
2022/12/18 01:12:24;;;;;;;27.33;12.00;;;;;;;14.94;78.61;99698.97;5933987;24;20697;-94
2022/12/18 01:14:59;;;;;;;25.17;11.33;;;;;;;14.91;78.52;99705.28;5932249;23;20174;-94
2022/12/18 01:17:25;;;;;;;29.70;11.80;;;;;;;14.75;79.18;99699.28;6016967;23;20221;-94
2022/12/18 01:20:00;;;;;;;;;;;;;;;;;;;;;
2022/12/18 01:23:02;;;;;;;;;;;;;;;;;;;;;
2022/12/18 01:29:12;;;;;;;31.10;12.80;;;;;;;15.07;78.66;99689.38;6021282;23;20163;-94
2022/12/18 01:31:43;;;;;;;27.30;12.10;;;;;;;15.16;78.10;99694.94;6016622;23;20167;-94
2022/12/18 01:34:14;;;;;;;24.50;12.20;;;;;;;15.16;78.08;99699.38;6016352;23;20165;-94
2022/12/18 01:37:08;;;;;;;22.07;11.80;;;;;;;15.14;77.89;99704.75;6016228;23;20161;-94
2022/12/18 01:39:45;;;;;;;25.00;10.83;;;;;;;15.08;78.17;99696.34;6016930;23;20183;-94
2022/12/18 01:42:13;;;;;;;31.97;12.67;;;;;;;15.12;77.86;99682.84;6012909;23;20239;-94
2022/12/18 01:45:31;;;;;;;23.07;11.00;;;;;;;15.21;77.46;99676.16;6016665;23;20189;-94
2022/12/18 01:48:05;;;;;;;26.47;10.40;;;;;;;15.19;77.73;99668.34;5988611;23;20167;-94
2022/12/18 01:50:52;;;;;;;;;;;;;;;;;;;;;
2022/12/18 01:53:45;;;;;;;26.10;10.00;;;;;;;15.03;79.08;99651.75;6042085;23;20226;-95
2022/12/18 01:59:32;;;;;;;29.97;11.57;;;;;;;14.83;81.15;99657.44;6041229;23;20154;-95
2022/12/18 02:05:19;;;;;;;;;;;;;;;;;;;;;
2022/12/18 02:08:04;;;;;;;;;;;;;;;;;;;;;
2022/12/18 02:10:56;;;;;;;30.13;13.27;;;;;;;14.95;79.77;99658.47;6041552;23;20508;-94
2022/12/18 02:13:34;;;;;;;25.03;12.13;;;;;;;14.90;79.82;99661.38;6039823;23;20150;-95
2022/12/18 02:16:15;;;;;;;28.77;11.50;;;;;;;15.02;78.96;99665.91;6016056;23;20189;-95
2022/12/18 02:18:47;;;;;;;25.97;11.67;;;;;;;15.03;78.96;99675.53;6040410;23;20162;-95
2022/12/18 02:21:28;;;;;;;25.17;11.17;;;;;;;14.99;79.14;99683.75;6039916;23;20156;-94
2022/12/18 02:24:18;;;;;;;28.83;10.87;;;;;;;15.00;79.59;99694.19;6040388;23;20269;-94
2022/12/18 02:27:43;;;;;;;;;;;;;;;;;;;;;
2022/12/18 02:30:54;;;;;;;;;;;;;;;;;;;;;
2022/12/18 02:33:24;;;;;;;25.73;11.70;;;;;;;14.99;80.24;99705.69;6041606;23;20228;-95
2022/12/18 02:36:08;;;;;;;;;;;;;;;;;;;;;
2022/12/18 02:39:11;;;;;;;;;;;;;;;;;;;;;
2022/12/18 02:42:08;;;;;;;;;;;;;;;;;;;;;
2022/12/18 02:47:57;;;;;;;24.00;10.00;;;;;;;15.24;79.66;99703.25;6037691;23;20190;-95
2022/12/18 02:50:54;;;;;;;22.63;11.83;;;;;;;15.28;79.59;99710.00;6015781;23;20570;-95
2022/12/18 02:53:32;;;;;;;24.10;10.77;;;;;;;15.31;79.52;99715.09;6015512;23;20578;-94
2022/12/18 02:56:20;;;;;;;21.43;10.83;;;;;;;15.30;79.65;99708.13;6039321;23;20168;-95
2022/12/18 02:59:14;;;;;;;;;;;;;;;;;;;;;
2022/12/18 03:02:28;;;;;;;;;;;;;;;;;;;;;
2022/12/18 03:05:17;;;;;;;;;;;;;;;;;;;;;
2022/12/18 03:07:59;;;;;;;;;;;;;;;;;;;;;
2022/12/18 03:10:36;;;;;;;23.70;11.03;;;;;;;15.30;79.28;99723.97;6040289;23;20247;-94
2022/12/18 03:13:42;;;;;;;;;;;;;;;;;;;;;
2022/12/18 03:16:47;;;;;;;;;;;;;;;;;;;;;
2022/12/18 03:30:41;;;;;;;23.40;11.30;;;;;;;15.42;78.05;99742.63;5799892;24;20547;-94
2022/12/18 03:33:36;;;;;;;22.83;10.83;;;;;;;15.36;78.28;99739.44;5770679;24;20247;-93
2022/12/18 03:36:39;;;;;;;;;;;;;;;;;;;;;
2022/12/18 03:39:41;;;;;;;27.27;11.40;;;;;;;15.42;78.47;99746.13;6015262;23;20239;-94
2022/12/18 03:53:33;;;;;;;;;;;;;;;;;;;;;
2022/12/18 03:56:44;;;;;;;;;;;;;;;;;;;;;
2022/12/18 03:59:25;;;;;;;24.60;11.27;;;;;;;15.55;77.58;99788.50;6033981;23;20243;-94
2022/12/18 04:02:44;;;;;;;;;;;;;;;;;;;;;
2022/12/18 04:05:44;;;;;;;;;;;;;;;;;;;;;
2022/12/18 04:11:47;;;;;;;;;;;;;;;;;;;;;
2022/12/18 04:14:21;;;;;;;27.93;12.83;;;;;;;15.63;78.17;99788.88;6042423;23;20212;-93
2022/12/18 04:16:57;;;;;;;;;;;;;;;;;;;;;
2022/12/18 04:19:28;;;;;;;26.50;12.20;;;;;;;15.48;79.46;99797.78;6043095;23;20244;-93
2022/12/18 04:22:05;;;;;;;25.13;12.43;;;;;;;15.34;80.77;99809.16;6017290;23;20157;-94
2022/12/18 04:24:33;;;;;;;28.77;13.27;;;;;;;15.30;81.22;99803.19;6017428;23;20180;-93
2022/12/18 04:27:05;;;;;;;26.10;12.10;;;;;;;15.37;81.10;99796.63;6017904;23;20243;-94
2022/12/18 04:29:41;;;;;;;;;;;;;;;;;;;;;
2022/12/18 04:32:10;;;;;;;27.37;12.40;;;;;;;15.50;80.47;99809.09;6041740;23;20227;-93
2022/12/18 04:34:35;;;;;;;24.50;11.50;;;;;;;15.51;80.17;99808.16;6017793;23;20172;-92
2022/12/18 04:37:03;;;;;;;27.53;13.23;;;;;;;15.43;80.63;99805.97;6016923;23;20165;-93
2022/12/18 04:39:37;;;;;;;26.00;11.20;;;;;;;15.47;80.26;99814.56;6016801;23;20575;-94
2022/12/18 04:42:05;;;;;;;27.00;10.77;;;;;;;15.46;80.22;99812.88;6040656;23;20151;-94
2022/12/18 04:44:36;;;;;;;27.97;11.90;;;;;;;15.43;80.39;99807.75;6016826;23;20186;-93
2022/12/18 04:47:33;;;;;;;;;;;;;;;;;;;;;
2022/12/18 04:50:54;;;;;;;;;;;;;;;;;;;;;
2022/12/18 04:57:23;;;;;;;;;;;;;;;;;;;;;
2022/12/18 05:00:37;;;;;;;;;;;;;;;;;;;;;
2022/12/18 05:07:11;;;;;;;;;;;;;;;;;;;;;
2022/12/18 05:10:14;;;;;;;;;;;;;;;;;;;;;
2022/12/18 05:16:34;;;;;;;;;;;;;;;;;;;;;
2022/12/18 05:19:38;;;;;;;;;;;;;;;;;;;;;
2022/12/18 05:23:15;;;;;;;;;;;;;;;;;;;;;
2022/12/18 05:26:16;;;;;;;;;;;;;;;;;;;;;
2022/12/18 05:29:12;;;;;;;24.30;11.80;;;;;;;15.61;79.84;99844.50;6041890;23;20224;-93
2022/12/18 05:32:10;;;;;;;;;;;;;;;;;;;;;
2022/12/18 05:34:51;;;;;;;;;;;;;;;;;;;;;
2022/12/18 05:48:37;;;;;;;27.07;13.37;;;;;;;15.51;80.14;99876.88;5690571;25;20181;-94
2022/12/18 06:12:38;;;;;;;;;;;;;;;;;;;;;
2022/12/18 06:15:33;;;;;;;24.40;11.20;;;;;;;15.37;79.02;99914.66;5540138;25;20264;-94
2022/12/18 06:18:06;;;;;;;26.67;12.07;;;;;;;15.41;78.65;99923.25;5658261;25;20172;-94
2022/12/18 06:20:41;;;;;;;;;;;;;;;;;;;;;
2022/12/18 06:23:19;;;;;;;22.40;11.60;;;;;;;15.31;78.04;99925.56;5819885;24;20264;-93
2022/12/18 06:26:04;;;;;;;30.17;11.30;;;;;;;15.35;77.83;99927.97;5955826;23;20161;-94
2022/12/18 06:28:39;;;;;;;28.87;11.40;;;;;;;15.13;77.91;99930.16;6015872;23;20169;-93
2022/12/18 06:31:17;;;;;;;;;;;;;;;;;;;;;
2022/12/18 06:33:58;;;;;;;;;;;;;;;;;;;;;
2022/12/18 06:36:28;;;;;;;24.53;9.53;;;;;;;14.77;78.76;99950.75;6041412;23;20222;-94
2022/12/18 06:39:20;;;;;;;17.30;8.33;;;;;;;14.81;77.76;99954.03;6039593;23;20194;-93
2022/12/18 06:41:46;;;;;;;22.27;8.87;;;;;;;14.76;77.57;99962.22;6040450;23;20177;-95
2022/12/18 06:44:36;;;;;;;28.00;9.80;;;;;;;14.94;76.36;99971.75;6040765;23;20591;-94
2022/12/18 06:47:01;;;;;;;14.77;6.77;;;;;;;14.52;76.35;99971.50;6028034;23;20163;-93
2022/12/18 06:52:45;;;;;;;14.87;6.87;;;;;;;14.41;77.40;99985.28;6008576;23;20268;-92
2022/12/18 06:56:29;;;;;;;13.00;5.70;;;;;;;14.42;76.41;99988.78;6008479;23;20160;-94
2022/12/18 06:59:17;;;;;;;13.97;5.83;;;;;;;14.26;74.74;100001.06;5926337;24;20603;-94
2022/12/18 07:01:45;;;;;;;9.87;5.50;;;;;;;14.16;74.48;100006.00;5911179;24;20566;-93
2022/12/18 07:05:00;;;;;;;11.77;5.13;;;;;;;14.14;74.31;100016.63;5926275;24;20220;-95
2022/12/18 07:08:40;;;;;;;;;;;;;;;;;;;;;
2022/12/18 07:11:08;;;;;;;7.40;3.27;;;;;;;14.22;71.49;100025.91;5926346;24;20240;-93
2022/12/18 07:13:39;;;;;;;6.93;3.43;;;;;;;13.89;72.15;100021.47;6027459;23;20480;-91
2022/12/18 07:16:24;;;;;;;7.97;3.60;;;;;;;13.84;72.20;100036.66;6039269;23;20183;-93
2022/12/18 07:20:03;;;;;;;;;;;;;;;;;;;;;
2022/12/18 07:22:21;;;;;;;6.87;3.13;;;;;;;13.81;73.00;100038.63;6007622;23;20597;-90
2022/12/18 07:24:47;;;;;;;10.37;4.83;;;;;;;13.93;72.87;100033.56;6040028;23;20178;-93
2022/12/18 07:27:12;;;;;;;19.63;8.90;;;;;;;13.93;72.24;100041.47;6039956;23;20232;-94
2022/12/18 07:29:38;;;;;;;26.17;12.27;;;;;;;14.12;71.97;100047.47;6015835;23;20153;-93
2022/12/18 07:32:07;;;;;;;13.80;6.27;;;;;;;14.25;71.90;100049.50;6015549;23;20154;-94
2022/12/18 07:34:32;;;;;;;8.83;4.40;;;;;;;14.14;72.18;100056.19;6040061;23;20145;-94
2022/12/18 07:36:58;;;;;;;10.67;4.33;;;;;;;14.14;72.15;100056.19;6039337;23;20232;-93
2022/12/18 07:39:23;;;;;;;8.50;4.23;;;;;;;14.23;72.17;100051.38;6038751;23;20200;-93
2022/12/18 07:42:30;;;;;;;15.97;5.80;;;;;;;14.24;72.13;100050.41;6040476;23;20151;-94
2022/12/18 07:44:41;;;;;;;10.87;5.40;;;;;;;13.94;72.80;100061.63;6039786;23;20260;-92
2022/12/18 07:47:06;;;;;;;10.23;4.80;;;;;;;13.69;73.90;100061.19;6038966;23;20161;-93
2022/12/18 07:49:59;;;;;;;15.33;6.87;;;;;;;13.85;73.79;100070.00;6038733;23;20162;-94
2022/12/18 07:52:26;;;;;;;22.33;7.93;;;;;;;13.89;73.82;100076.81;6015354;23;20236;-93
2022/12/18 07:54:52;;;;;;;13.37;6.37;;;;;;;13.87;73.13;100080.47;6015212;23;20173;-94
2022/12/18 07:57:18;;;;;;;9.90;5.23;;;;;;;13.75;73.83;100084.59;6039283;23;20232;-93
2022/12/18 07:59:43;;;;;;;12.30;5.40;;;;;;;13.80;74.44;100086.97;6015300;23;20164;-92
2022/12/18 08:02:09;;;;;;;10.93;5.73;;;;;;;13.87;73.61;100094.50;6038833;23;20185;-93
2022/12/18 08:04:44;;;;;;;12.20;5.90;;;;;;;13.81;74.09;100100.06;6014472;23;20196;-92
2022/12/18 08:07:10;;;;;;;16.30;6.23;;;;;;;13.74;73.89;100108.38;6036186;23;20146;-94
2022/12/18 08:09:35;;;;;;;9.20;5.00;;;;;;;13.71;73.73;100104.09;6014388;23;20160;-93
2022/12/18 08:12:05;;;;;;;11.27;6.03;;;;;;;13.64;74.26;100100.06;6037919;23;20173;-94
2022/12/18 08:14:31;;;;;;;10.90;5.83;;;;;;;13.73;73.56;100115.41;6014260;23;20213;-93
2022/12/18 08:16:56;;;;;;;13.30;5.63;;;;;;;13.48;74.29;100107.03;6037739;23;20157;-93
2022/12/18 08:19:22;;;;;;;12.13;5.57;;;;;;;13.51;74.20;100112.16;6014702;23;20177;-94
2022/12/18 08:21:55;;;;;;;10.50;5.93;;;;;;;13.45;74.10;100113.28;6014244;23;20178;-93
2022/12/18 08:24:22;;;;;;;12.57;5.03;;;;;;;13.45;73.67;100117.69;6038658;23;20240;-94
2022/12/18 08:26:48;;;;;;;9.93;5.17;;;;;;;13.28;73.36;100121.19;6014212;23;20166;-94
2022/12/18 08:29:16;;;;;;;9.93;4.27;;;;;;;13.35;73.59;100133.09;6038306;23;20232;-93
2022/12/18 08:31:41;;;;;;;10.63;4.03;;;;;;;13.35;72.28;100137.50;6014448;23;20166;-92
2022/12/18 08:34:08;;;;;;;9.13;5.03;;;;;;;13.46;72.23;100140.50;6015362;23;20154;-94
2022/12/18 08:36:33;;;;;;;9.27;4.87;;;;;;;13.52;72.23;100134.94;6038002;23;20165;-92
2022/12/18 08:39:01;;;;;;;11.80;5.30;;;;;;;13.58;72.49;100137.25;6038401;23;20162;-94
2022/12/18 08:41:27;;;;;;;8.87;4.13;;;;;;;13.44;72.77;100137.91;6014267;23;20609;-93
2022/12/18 08:46:41;;;;;;;9.13;4.57;;;;;;;13.70;71.89;100135.81;6038898;23;20153;-94
2022/12/18 08:49:28;;;;;;;8.27;4.10;;;;;;;13.73;71.87;100141.75;6038787;23;20154;-93
2022/12/18 08:51:59;;;;;;;8.23;3.97;;;;;;;13.79;72.72;100146.75;6015613;23;20165;-93
2022/12/18 08:54:36;;;;;;;19.90;5.07;;;;;;;14.02;71.86;100151.72;6040002;23;20229;-94
2022/12/18 08:57:04;;;;;;;7.80;3.87;;;;;;;14.12;71.42;100149.47;6040264;23;20146;-94
2022/12/18 09:00:02;;;;;;;;;;;;;;;;;;;;;
2022/12/18 09:02:28;;;;;;;7.83;3.50;;;;;;;13.86;71.14;100153.41;6031657;23;20252;-93
2022/12/18 09:04:54;;;;;;;11.17;4.60;;;;;;;13.83;71.35;100145.69;6039935;23;20288;-92
2022/12/18 09:07:21;;;;;;;8.27;3.67;;;;;;;13.68;72.00;100146.41;6036206;23;20165;-92
2022/12/18 09:09:51;;;;;;;7.43;3.77;;;;;;;13.61;71.45;100149.41;6013962;23;20161;-92
2022/12/18 09:12:17;;;;;;;8.80;3.70;;;;;;;13.47;71.98;100148.31;6039266;23;20172;-92
2022/12/18 09:15:24;;;;;;;14.10;4.27;;;;;;;13.41;71.92;100147.75;6037684;23;20150;-94
2022/12/18 09:18:34;;;;;;;10.00;4.07;;;;;;;13.36;72.54;100149.78;6039444;23;20176;-94
2022/12/18 09:21:37;;;;;;;;;;;;;;;;;;;;;
2022/12/18 09:24:32;;;;;;;6.63;3.07;;;;;;;13.36;71.35;100155.88;6021993;23;20339;-94
2022/12/18 09:26:59;;;;;;;9.97;4.17;;;;;;;13.38;70.60;100148.75;6039946;23;20153;-93
2022/12/18 09:29:29;;;;;;;7.30;2.97;;;;;;;13.11;70.21;100143.94;6036264;23;20272;-93
2022/12/18 09:32:09;;;;;;;8.77;4.03;;;;;;;13.20;70.78;100149.66;6040800;23;20556;-93
2022/12/18 09:34:36;;;;;;;8.33;3.93;;;;;;;13.08;70.67;100152.81;6039235;23;20235;-93
2022/12/18 09:37:06;;;;;;;8.53;3.30;;;;;;;13.15;71.09;100146.38;6041026;23;20156;-93
2022/12/18 09:39:31;;;;;;;10.87;3.70;;;;;;;13.27;71.08;100155.47;6040037;23;20157;-92
2022/12/18 09:41:59;;;;;;;6.50;3.03;;;;;;;13.24;69.99;100145.06;6016006;23;20245;-93
2022/12/18 09:44:35;;;;;;;8.30;3.50;;;;;;;13.20;70.36;100154.03;6016277;23;20189;-93
2022/12/18 09:47:12;;;;;;;6.50;3.43;;;;;;;13.39;69.63;100157.53;6041086;23;20153;-94
2022/12/18 09:49:42;;;;;;;8.97;3.73;;;;;;;13.58;69.38;100153.06;6038305;23;20152;-94
2022/12/18 09:52:14;;;;;;;8.40;3.60;;;;;;;13.61;69.28;100152.91;6038239;23;20188;-94
2022/12/18 09:54:48;;;;;;;11.47;3.60;;;;;;;13.68;70.36;100154.31;6040385;23;20157;-91
2022/12/18 09:57:17;;;;;;;8.67;3.60;;;;;;;13.80;69.88;100155.50;6040914;23;20213;-93
2022/12/18 09:59:46;;;;;;;8.73;4.97;;;;;;;13.69;70.42;100148.13;6039921;23;20158;-93
2022/12/18 10:02:21;;;;;;;14.70;6.17;;;;;;;13.78;70.35;100147.69;6040467;23;20555;-93
2022/12/18 10:04:57;;;;;;;11.63;5.93;;;;;;;13.67;71.37;100157.91;6039772;23;20208;-94
2022/12/18 10:07:41;;;;;;;12.00;4.97;;;;;;;13.69;71.54;100158.66;6040192;23;20141;-94
2022/12/18 10:10:16;;;;;;;10.10;4.77;;;;;;;13.79;71.98;100153.78;6040579;23;20169;-93
2022/12/18 10:12:58;;;;;;;15.87;5.43;;;;;;;13.86;72.17;100150.75;6039868;23;20572;-94
2022/12/18 10:15:52;;;;;;;21.10;7.27;;;;;;;13.88;72.76;100148.06;6039786;23;20146;-94
2022/12/18 10:18:50;;;;;;;10.63;5.73;;;;;;;13.91;72.74;100148.78;6035760;23;20158;-95
2022/12/18 10:21:24;;;;;;;11.20;5.60;;;;;;;13.97;73.23;100152.88;6040637;23;20138;-93
2022/12/18 10:24:01;;;;;;;15.97;5.60;;;;;;;14.00;73.20;100158.00;6015991;23;20181;-95
2022/12/18 10:26:26;;;;;;;10.93;5.37;;;;;;;13.94;73.85;100153.88;6039214;23;20176;-94
2022/12/18 10:28:56;;;;;;;11.27;5.70;;;;;;;13.92;74.53;100154.88;6012268;23;20594;-94
2022/12/18 10:31:26;;;;;;;11.27;4.83;;;;;;;13.79;75.44;100154.66;6039438;23;20192;-94
2022/12/18 10:33:54;;;;;;;15.83;6.53;;;;;;;13.92;75.16;100153.09;6015523;23;20158;-93
2022/12/18 10:36:27;;;;;;;15.80;7.10;;;;;;;13.92;75.16;100150.47;6039146;23;20164;-94
2022/12/18 10:39:12;;;;;;;12.60;5.57;;;;;;;13.98;75.13;100150.16;6038875;23;20161;-94
2022/12/18 10:41:45;;;;;;;11.87;6.00;;;;;;;14.01;75.49;100159.72;6015148;23;20586;-95
2022/12/18 10:44:20;;;;;;;14.83;7.10;;;;;;;13.92;75.49;100160.16;6039042;23;20189;-94
2022/12/18 10:46:50;;;;;;;15.13;6.60;;;;;;;13.94;75.88;100160.94;6016102;23;20158;-94
2022/12/18 10:49:35;;;;;;;15.80;6.50;;;;;;;13.97;75.71;100158.13;6015180;23;20156;-94
2022/12/18 10:52:15;;;;;;;15.23;6.67;;;;;;;13.89;76.44;100166.44;6039307;23;20157;-94
2022/12/18 10:54:50;;;;;;;14.10;7.63;;;;;;;13.84;76.95;100164.94;6038921;23;20138;-93
2022/12/18 10:57:32;;;;;;;14.57;7.00;;;;;;;13.81;77.52;100162.50;6039078;23;20149;-94
2022/12/18 11:00:17;;;;;;;21.17;8.70;;;;;;;13.88;77.36;100159.47;6039133;23;20150;-94
2022/12/18 11:02:42;;;;;;;19.00;8.43;;;;;;;13.98;77.40;100171.25;6039007;23;20176;-94
2022/12/18 11:05:40;;;;;;;15.63;7.07;;;;;;;14.01;77.13;100176.38;6038888;23;20549;-93
2022/12/18 11:08:22;;;;;;;15.97;8.87;;;;;;;13.97;77.50;100173.94;5992611;23;20165;-93
2022/12/18 11:10:48;;;;;;;14.73;7.23;;;;;;;13.95;77.61;100171.41;6038719;23;20239;-93
2022/12/18 11:13:20;;;;;;;17.90;7.90;;;;;;;13.90;77.40;100183.09;6040479;23;20191;-94
2022/12/18 11:15:52;;;;;;;19.77;9.80;;;;;;;13.93;78.17;100194.38;6015358;23;20613;-93
2022/12/18 11:18:29;;;;;;;23.23;10.03;;;;;;;13.63;78.89;100190.56;6038679;23;20239;-92
2022/12/18 11:21:08;;;;;;;21.27;9.53;;;;;;;13.55;79.71;100200.63;6038726;23;20496;-92
2022/12/18 11:23:35;;;;;;;22.63;10.43;;;;;;;13.71;79.32;100200.72;6014974;23;20192;-92
2022/12/18 11:26:05;;;;;;;19.33;9.37;;;;;;;13.77;79.03;100198.66;6015428;23;20165;-93
2022/12/18 11:28:44;;;;;;;20.03;9.03;;;;;;;13.63;79.64;100201.09;6038492;23;20158;-92
2022/12/18 11:31:15;;;;;;;18.37;8.63;;;;;;;13.60;79.94;100200.41;6038343;23;20160;-91
2022/12/18 11:33:51;;;;;;;13.23;7.77;;;;;;;13.42;80.49;100212.66;6039370;23;20246;-91
2022/12/18 11:36:17;;;;;;;14.90;7.10;;;;;;;13.39;80.32;100204.94;6039563;23;20141;-91
2022/12/18 11:38:45;;;;;;;14.57;7.30;;;;;;;13.35;80.29;100200.72;6014477;23;20614;-90
2022/12/18 11:42:17;;;;;;;14.53;7.37;;;;;;;13.31;80.64;100200.00;6039354;23;20482;-90
2022/12/18 11:44:35;;;;;;;18.53;9.10;;;;;;;13.12;81.43;100203.56;6033876;23;20194;-90
2022/12/18 11:47:11;;;;;;;19.27;8.70;;;;;;;13.15;81.11;100203.44;6038233;23;20156;-90
2022/12/18 11:49:43;;;;;;;18.97;7.57;;;;;;;13.17;81.41;100201.56;6039128;23;20515;-90
2022/12/18 11:52:36;;;;;;;15.03;7.23;;;;;;;13.22;81.15;100194.31;6039171;23;20145;-90
2022/12/18 11:55:14;;;;;;;12.13;6.33;;;;;;;13.29;80.87;100195.72;6029937;23;20181;-91
2022/12/18 11:58:11;;;;;;;13.57;5.90;;;;;;;13.10;81.11;100197.53;6010622;23;20141;-91
2022/12/18 12:00:49;;;;;;;11.53;6.00;;;;;;;13.08;81.63;100192.31;6011310;23;20619;-90
2022/12/18 12:04:04;;;;;;;15.53;6.70;;;;;;;13.27;80.62;100192.31;6010196;23;20602;-90
2022/12/18 12:06:50;;;;;;;15.07;6.10;;;;;;;13.31;80.97;100200.00;5954090;24;20238;-90
2022/12/18 12:09:29;;;;;;;21.60;8.20;;;;;;;13.25;80.53;100199.44;6010628;23;20137;-91
2022/12/18 12:12:16;;;;;;;24.87;11.07;;;;;;;13.13;81.12;100213.19;5984353;23;20153;-90
2022/12/18 12:15:01;;;;;;;31.10;13.07;;;;;;;13.25;81.40;100215.25;6009227;23;20555;-90
2022/12/18 12:17:33;;;;;;;33.57;13.10;;;;;;;13.40;80.69;100209.25;6011453;23;20145;-90
2022/12/18 12:20:08;;;;;;;35.77;14.20;;;;;;;13.45;80.17;100209.88;5986435;23;20253;-90
2022/12/18 12:22:48;;;;;;;45.10;15.00;;;;;;;13.24;80.27;100208.25;6011364;23;20139;-91
2022/12/18 12:25:39;;;;;;;38.67;14.50;;;;;;;13.16;80.60;100207.75;6012140;23;20157;-90
2022/12/18 12:28:10;;;;;;;43.37;15.63;;;;;;;13.18;80.85;100205.94;6010751;23;20137;-90
2022/12/18 12:31:01;;;;;;;42.00;16.97;;;;;;;13.20;80.27;100214.59;6012262;23;20630;-90
2022/12/18 12:34:01;;;;;;;47.07;18.20;;;;;;;13.22;80.36;100220.66;5987378;23;20145;-90
2022/12/18 12:36:39;;;;;;;36.37;17.43;;;;;;;13.01;80.28;100221.59;6002060;23;20164;-90
2022/12/18 12:39:16;;;;;;;41.10;16.03;;;;;;;13.09;80.35;100227.41;6012143;23;20585;-90
2022/12/18 12:44:50;;;;;;;32.73;13.03;;;;;;;12.94;81.41;100236.81;6012333;23;20253;-90
2022/12/18 12:47:26;;;;;;;20.67;8.53;;;;;;;12.73;80.23;100240.41;6012592;23;20190;-89
2022/12/18 12:49:53;;;;;;;16.17;8.20;;;;;;;12.81;80.21;100244.38;6011926;23;20152;-89
2022/12/18 12:52:45;;;;;;;19.23;8.40;;;;;;;12.91;78.88;100248.34;6011922;23;20184;-90
2022/12/18 12:55:29;;;;;;;18.67;8.87;;;;;;;12.99;78.94;100244.50;5987426;23;20152;-90
2022/12/18 12:58:16;;;;;;;17.03;8.83;;;;;;;12.99;79.41;100252.41;6012219;23;20169;-90
2022/12/18 13:01:05;;;;;;;16.00;6.03;;;;;;;12.86;79.39;100255.56;6012451;23;20228;-89
2022/12/18 13:03:54;;;;;;;12.77;5.83;;;;;;;12.88;78.19;100258.13;6011622;23;20265;-90
2022/12/18 13:06:22;;;;;;;14.43;6.07;;;;;;;12.86;77.39;100266.09;6012346;23;20177;-89
2022/12/18 13:08:55;;;;;;;14.00;5.97;;;;;;;12.77;77.18;100265.63;6012150;23;20190;-90
2022/12/18 13:14:31;;;;;;;13.90;6.70;;;;;;;12.86;76.52;100278.41;6011937;23;20152;-89
2022/12/18 13:17:18;;;;;;;11.67;5.17;;;;;;;12.90;76.48;100283.47;5987371;23;20185;-89
2022/12/18 13:20:09;;;;;;;10.97;5.00;;;;;;;12.82;75.88;100288.19;5987146;23;20176;-89
2022/12/18 13:22:48;;;;;;;12.43;5.83;;;;;;;12.81;76.34;100299.63;6011159;23;20172;-89
2022/12/18 13:25:33;;;;;;;9.83;4.70;;;;;;;12.79;76.60;100301.47;6011603;23;20168;-89
2022/12/18 13:28:05;;;;;;;9.30;4.33;;;;;;;12.60;76.33;100297.94;6010992;23;20160;-89
2022/12/18 13:30:42;;;;;;;11.53;5.07;;;;;;;12.45;76.65;100311.72;6011293;23;20181;-89
2022/12/18 13:33:17;;;;;;;11.47;5.17;;;;;;;12.40;77.10;100303.16;5987184;23;20483;-89
2022/12/18 13:35:45;;;;;;;13.93;5.30;;;;;;;12.42;76.99;100309.22;5985989;23;20160;-90
2022/12/18 13:38:20;;;;;;;9.33;4.07;;;;;;;12.32;77.99;100310.50;6012193;23;20156;-90
2022/12/18 13:40:57;;;;;;;9.97;5.00;;;;;;;12.44;77.10;100309.16;6012311;23;20162;-89
2022/12/18 13:43:36;;;;;;;8.53;3.97;;;;;;;12.38;77.47;100312.03;5987552;23;20198;-90
2022/12/18 13:46:21;;;;;;;10.00;4.50;;;;;;;12.36;77.77;100309.47;6011012;23;20147;-90
2022/12/18 13:49:06;;;;;;;12.50;5.00;;;;;;;12.30;78.13;100304.47;6012149;23;20471;-89
2022/12/18 13:51:34;;;;;;;11.20;5.47;;;;;;;12.20;79.04;100303.13;6012403;23;20143;-90
2022/12/18 13:54:27;;;;;;;10.57;5.40;;;;;;;12.17;79.02;100308.50;6011185;23;20155;-90
2022/12/18 13:56:58;;;;;;;10.73;5.70;;;;;;;12.18;79.50;100313.72;6012026;23;20157;-89
2022/12/18 13:59:50;;;;;;;9.13;4.87;;;;;;;12.13;80.34;100314.81;6012041;23;20552;-89
2022/12/18 14:02:21;;;;;;;8.33;3.67;;;;;;;11.97;80.75;100311.09;6009275;23;20165;-90
2022/12/18 14:04:48;;;;;;;12.27;5.43;;;;;;;11.68;82.68;100323.59;6011910;23;20199;-89
2022/12/18 14:07:23;;;;;;;17.13;4.83;;;;;;;11.88;81.95;100319.31;6011993;23;20213;-89
2022/12/18 14:09:57;;;;;;;9.50;4.97;;;;;;;11.91;81.53;100329.72;6011974;23;20152;-90
2022/12/18 14:15:28;;;;;;;8.43;4.10;;;;;;;11.71;81.64;100338.38;6012336;23;20183;-90
2022/12/18 14:18:05;;;;;;;8.93;4.93;;;;;;;11.66;81.15;100343.75;6012569;23;20157;-88
2022/12/18 14:20:32;;;;;;;12.00;5.97;;;;;;;11.67;81.59;100353.34;6012533;23;20136;-89
2022/12/18 14:23:04;;;;;;;10.87;5.40;;;;;;;11.88;81.25;100362.22;5987165;23;20160;-89
2022/12/18 14:25:30;;;;;;;9.80;4.77;;;;;;;11.89;80.86;100363.06;6012076;23;20153;-89
2022/12/18 14:28:28;;;;;;;14.67;5.20;;;;;;;11.83;80.91;100358.91;6012071;23;20153;-89
2022/12/18 14:30:54;;;;;;;14.50;5.27;;;;;;;11.87;80.39;100367.53;5986842;23;20497;-90
2022/12/18 14:33:33;;;;;;;14.03;5.57;;;;;;;11.76;80.64;100367.09;6011770;23;20146;-90
2022/12/18 14:36:03;;;;;;;12.30;5.97;;;;;;;11.50;82.01;100371.47;6012074;23;20151;-89
2022/12/18 14:38:36;;;;;;;12.10;5.87;;;;;;;11.56;81.99;100376.53;5987101;23;20160;-90
2022/12/18 14:41:20;;;;;;;16.30;6.00;;;;;;;11.57;81.69;100380.88;5983210;23;20234;-89
2022/12/18 14:43:53;;;;;;;10.20;5.07;;;;;;;11.60;81.94;100383.38;5986153;23;20259;-90
2022/12/18 14:46:42;;;;;;;12.37;5.57;;;;;;;11.71;81.22;100386.47;5986322;23;20169;-90
2022/12/18 14:49:33;;;;;;;13.33;5.17;;;;;;;11.78;80.37;100386.25;6010210;23;20136;-90
2022/12/18 14:52:17;;;;;;;11.93;5.40;;;;;;;11.90;80.31;100393.66;5987066;23;20216;-90
2022/12/18 14:54:46;;;;;;;13.97;6.73;;;;;;;11.88;79.46;100404.25;6011556;23;20201;-89
2022/12/18 14:57:25;;;;;;;12.10;4.87;;;;;;;11.81;79.43;100417.69;6010496;23;20165;-90
2022/12/18 14:59:52;;;;;;;12.93;6.37;;;;;;;11.87;79.72;100413.03;5987051;23;20222;-90
2022/12/18 15:02:36;;;;;;;14.50;7.07;;;;;;;11.91;78.99;100404.13;6011521;23;20165;-90
2022/12/18 15:05:05;;;;;;;14.80;5.90;;;;;;;11.87;79.21;100412.19;6011309;23;20348;-90
2022/12/18 15:07:49;;;;;;;11.20;5.20;;;;;;;11.79;78.68;100422.13;6011397;23;20157;-89
2022/12/18 15:10:24;;;;;;;18.27;5.83;;;;;;;11.45;79.82;100425.09;5986823;23;20156;-89